Time;durP1;ratioP1;P1;durP2;ratioP2;P2;SDS_P1;SDS_P2;PMS_P1;PMS_P2;Temp;Humidity;BMP_temperature;BMP_pressure;BME280_temperature;BME280_humidity;BME280_pressure;Samples;Min_cycle;Max_cycle;Signal;HPM_P1;HPM_P2
2021/03/14 00:00:10;;;;;;;6.68;1.63;;;7.50;94.00;;;;;;4803612;29;20318;-80
2021/03/14 00:02:36;;;;;;;14.07;1.83;;;7.60;94.10;;;;;;4801599;29;20378;-79
2021/03/14 00:05:04;;;;;;;3.22;1.15;;;7.60;94.10;;;;;;4801987;29;20059;-79
2021/03/14 00:07:30;;;;;;;6.35;1.45;;;7.60;94.00;;;;;;4788330;29;20058;-80
2021/03/14 00:09:56;;;;;;;6.63;1.15;;;7.60;94.10;;;;;;4805417;29;20149;-77
2021/03/14 00:12:21;;;;;;;7.57;1.55;;;7.70;94.10;;;;;;4805444;29;20027;-79
2021/03/14 00:14:47;;;;;;;5.43;1.50;;;7.60;94.50;;;;;;4790810;29;20038;-80
2021/03/14 00:17:12;;;;;;;4.85;2.05;;;7.60;94.10;;;;;;4805181;29;20338;-78
2021/03/14 00:19:38;;;;;;;7.82;1.40;;;7.60;94.20;;;;;;4805426;29;20046;-80
2021/03/14 00:22:03;;;;;;;4.60;1.40;;;7.60;94.30;;;;;;4804997;29;20050;-79
2021/03/14 00:24:29;;;;;;;5.93;1.73;;;7.60;94.30;;;;;;4788753;29;20469;-79
2021/03/14 00:26:55;;;;;;;13.57;1.30;;;7.70;94.40;;;;;;4790423;29;20121;-79
2021/03/14 00:29:21;;;;;;;6.07;1.20;;;7.70;94.40;;;;;;4789398;29;20091;-80
2021/03/14 00:31:46;;;;;;;11.27;1.73;;;7.70;94.70;;;;;;4803943;29;20043;-79
2021/03/14 00:34:12;;;;;;;11.00;1.75;;;7.60;94.90;;;;;;4805159;29;20035;-79
2021/03/14 00:36:38;;;;;;;2.33;0.82;;;7.50;95.70;;;;;;4805132;29;20046;-79
2021/03/14 00:39:04;;;;;;;1.42;0.30;;;7.10;96.90;;;;;;4806496;29;20816;-81
2021/03/14 00:41:29;;;;;;;1.17;0.38;;;6.80;97.70;;;;;;4804384;29;20045;-80
2021/03/14 00:43:55;;;;;;;2.10;0.40;;;6.80;98.10;;;;;;4804757;29;20031;-78
2021/03/14 00:46:21;;;;;;;2.22;0.40;;;6.50;98.40;;;;;;4805036;29;20389;-79
2021/03/14 00:48:46;;;;;;;1.23;0.25;;;6.50;98.80;;;;;;4805150;29;20038;-78
2021/03/14 00:51:12;;;;;;;0.63;0.63;;;6.50;98.80;;;;;;4805093;29;20431;-77
2021/03/14 00:53:40;;;;;;;0.93;0.47;;;6.50;99.20;;;;;;4806702;29;20109;-79
2021/03/14 00:56:06;;;;;;;1.95;0.30;;;6.40;99.30;;;;;;4805539;29;20051;-78
2021/03/14 00:58:32;;;;;;;1.90;0.35;;;6.20;99.40;;;;;;4804764;29;20039;-78
2021/03/14 01:00:58;;;;;;;2.67;0.35;;;6.20;99.70;;;;;;4804507;29;20038;-79
2021/03/14 01:03:23;;;;;;;1.58;0.28;;;6.20;99.60;;;;;;4804468;29;20381;-78
2021/03/14 01:05:49;;;;;;;3.05;0.40;;;6.30;99.40;;;;;;4806262;29;20030;-78
2021/03/14 01:08:18;;;;;;;1.55;0.30;;;6.30;99.50;;;;;;4803291;29;20039;-77
2021/03/14 01:10:45;;;;;;;1.30;0.38;;;6.10;99.90;;;;;;4804734;29;20054;-78
2021/03/14 01:13:11;;;;;;;2.80;0.55;;;6.20;99.80;;;;;;4804716;29;20569;-77
2021/03/14 01:15:36;;;;;;;2.60;0.88;;;6.20;99.90;;;;;;4804401;29;20051;-77
2021/03/14 01:18:03;;;;;;;2.58;0.68;;;6.20;99.90;;;;;;4805257;29;20023;-79
2021/03/14 01:20:29;;;;;;;4.57;0.85;;;6.20;99.90;;;;;;4804385;29;20055;-78
2021/03/14 01:22:55;;;;;;;3.80;0.80;;;6.30;99.90;;;;;;4804243;29;20039;-77
2021/03/14 01:25:20;;;;;;;0.50;0.50;;;6.20;99.90;;;;;;4804696;29;20031;-77
2021/03/14 01:27:46;;;;;;;2.80;0.57;;;6.40;99.90;;;;;;4804395;29;20031;-77
2021/03/14 01:30:17;;;;;;;3.08;0.73;;;6.50;99.80;;;;;;4804235;29;20168;-79
2021/03/14 01:32:46;;;;;;;1.70;0.60;;;6.50;99.90;;;;;;4805610;29;20048;-77
2021/03/14 01:35:14;;;;;;;4.28;0.70;;;6.20;99.90;;;;;;4803868;29;20078;-78
2021/03/14 01:37:40;;;;;;;3.58;1.00;;;6.20;99.90;;;;;;4804326;29;20503;-79
2021/03/14 01:40:07;;;;;;;2.20;0.70;;;6.30;99.90;;;;;;4788116;29;20477;-79
2021/03/14 01:42:33;;;;;;;2.13;0.40;;;6.10;99.90;;;;;;4803960;29;20043;-79
2021/03/14 01:44:59;;;;;;;3.70;0.60;;;6.10;99.90;;;;;;4805219;29;20027;-79
2021/03/14 01:47:40;;;;;;;2.88;0.70;;;6.10;99.90;;;;;;4803658;29;20154;-79
2021/03/14 01:50:12;;;;;;;1.73;0.77;;;6.20;99.90;;;;;;4803571;29;20051;-79
2021/03/14 01:52:38;;;;;;;3.35;0.88;;;6.30;99.90;;;;;;4803716;29;20042;-78
2021/03/14 01:55:06;;;;;;;1.55;0.70;;;6.10;99.90;;;;;;4803811;29;20054;-79
2021/03/14 01:57:33;;;;;;;1.00;0.70;;;6.10;99.90;;;;;;4803688;29;20473;-78
2021/03/14 01:59:59;;;;;;;1.85;1.00;;;6.10;99.90;;;;;;4805039;29;20107;-80
2021/03/14 02:02:26;;;;;;;1.67;0.82;;;6.10;99.90;;;;;;4802492;29;20284;-79
2021/03/14 02:04:51;;;;;;;1.70;0.82;;;6.10;99.90;;;;;;4803159;29;20055;-77
2021/03/14 02:07:17;;;;;;;1.60;0.68;;;6.10;99.90;;;;;;4803611;29;20095;-76
2021/03/14 02:09:43;;;;;;;3.58;0.77;;;6.20;99.90;;;;;;4803504;29;20043;-77
2021/03/14 02:12:13;;;;;;;6.53;1.15;;;6.20;99.90;;;;;;4805177;29;20022;-78
2021/03/14 02:14:39;;;;;;;3.65;0.60;;;6.20;99.90;;;;;;4787765;29;20045;-78
2021/03/14 02:17:14;;;;;;;1.48;0.70;;;6.20;99.90;;;;;;4787221;29;20370;-78
2021/03/14 02:19:52;;;;;;;2.03;0.95;;;6.30;99.90;;;;;;4803201;29;20038;-78
2021/03/14 02:22:22;;;;;;;3.50;0.70;;;6.20;99.90;;;;;;4787047;29;20045;-79
2021/03/14 02:24:53;;;;;;;3.25;1.00;;;6.30;99.90;;;;;;4787432;29;20430;-79
2021/03/14 02:27:19;;;;;;;7.18;1.00;;;6.20;99.90;;;;;;4803039;29;20675;-78
2021/03/14 02:29:45;;;;;;;2.20;0.73;;;6.20;99.90;;;;;;4804524;29;20045;-79
2021/03/14 02:32:12;;;;;;;3.17;0.80;;;6.20;99.90;;;;;;4803114;29;20093;-77
2021/03/14 02:34:44;;;;;;;2.72;1.15;;;6.10;99.90;;;;;;4802358;29;20039;-79
2021/03/14 02:37:12;;;;;;;2.67;0.60;;;6.10;99.90;;;;;;4804373;29;20046;-79
2021/03/14 02:39:38;;;;;;;;;;;6.10;99.90;;;;;;4805188;29;20062;-77
2021/03/14 02:42:09;;;;;;;2.35;0.50;;;6.10;99.90;;;;;;4822654;29;19967;-78
2021/03/14 02:44:37;;;;;;;1.42;0.88;;;6.10;99.90;;;;;;4821644;29;20042;-78
2021/03/14 02:47:05;;;;;;;1.85;0.70;;;6.00;99.90;;;;;;4821281;29;20076;-78
2021/03/14 02:49:33;;;;;;;5.75;0.80;;;6.00;99.90;;;;;;4821212;29;20469;-80
2021/03/14 02:52:00;;;;;;;1.65;0.40;;;6.00;99.90;;;;;;4804562;29;20030;-79
2021/03/14 02:54:26;;;;;;;2.30;0.60;;;5.90;99.90;;;;;;4821155;29;20023;-78
2021/03/14 02:56:52;;;;;;;1.70;0.52;;;5.90;99.90;;;;;;4806201;29;20031;-77
2021/03/14 02:59:21;;;;;;;1.30;0.70;;;6.00;99.90;;;;;;4820606;29;20042;-78
2021/03/14 03:01:48;;;;;;;4.38;0.57;;;5.90;99.90;;;;;;4821028;29;20042;-80
2021/03/14 03:04:17;;;;;;;1.35;0.60;;;6.10;99.90;;;;;;4820759;29;20481;-78
2021/03/14 03:06:44;;;;;;;7.32;0.93;;;6.10;99.90;;;;;;4804633;29;20043;-80
2021/03/14 03:09:11;;;;;;;4.00;0.70;;;6.00;99.90;;;;;;4820762;29;20034;-78
2021/03/14 03:11:38;;;;;;;2.40;0.65;;;6.20;99.90;;;;;;4822157;29;20037;-80
2021/03/14 03:14:05;;;;;;;3.00;0.60;;;6.30;99.90;;;;;;4820863;29;20083;-80
2021/03/14 03:16:31;;;;;;;1.43;0.90;;;6.40;99.90;;;;;;4820957;29;20053;-80
2021/03/14 03:18:57;;;;;;;0.93;0.65;;;6.50;99.90;;;;;;4821127;29;20109;-79
2021/03/14 03:21:25;;;;;;;5.10;1.23;;;6.40;99.90;;;;;;4821099;29;20074;-78
2021/03/14 03:23:51;;;;;;;3.20;1.58;;;6.40;99.90;;;;;;4822358;29;20054;-79
2021/03/14 03:26:17;;;;;;;2.63;0.70;;;6.30;99.90;;;;;;4804554;29;20108;-78
2021/03/14 03:28:44;;;;;;;2.53;0.68;;;5.80;99.90;;;;;;4804763;29;20042;-76
2021/03/14 03:31:10;;;;;;;1.30;0.40;;;5.70;99.90;;;;;;4820588;29;20038;-78
2021/03/14 03:33:36;;;;;;;2.03;0.50;;;5.70;99.90;;;;;;4820974;29;20166;-79
2021/03/14 03:36:02;;;;;;;1.38;0.70;;;5.60;99.90;;;;;;4822049;29;20421;-79
2021/03/14 03:38:32;;;;;;;0.50;0.40;;;5.60;99.90;;;;;;4820462;29;20051;-78
2021/03/14 03:40:57;;;;;;;3.72;0.80;;;5.50;99.90;;;;;;4820635;29;20041;-80
2021/03/14 03:43:30;;;;;;;3.88;0.70;;;5.50;99.90;;;;;;4823837;29;20051;-79
2021/03/14 03:45:59;;;;;;;3.83;0.60;;;5.50;99.90;;;;;;4808004;29;20042;-78
2021/03/14 03:48:44;;;;;;;1.27;0.63;;;5.50;99.90;;;;;;4823514;29;20038;-78
2021/03/14 03:51:11;;;;;;;2.70;0.75;;;5.60;99.90;;;;;;4824320;29;20033;-77
2021/03/14 03:53:38;;;;;;;3.33;0.70;;;5.50;99.90;;;;;;4825387;29;20327;-79
2021/03/14 03:56:05;;;;;;;1.83;0.80;;;5.70;99.90;;;;;;4823552;29;20050;-78
2021/03/14 03:58:32;;;;;;;4.57;0.82;;;5.60;99.90;;;;;;4807333;29;20038;-78
2021/03/14 04:01:00;;;;;;;6.30;1.20;;;5.80;99.90;;;;;;4823978;29;20046;-76
2021/03/14 04:03:26;;;;;;;7.50;0.95;;;5.70;99.90;;;;;;4823088;29;20030;-77
2021/03/14 04:05:57;;;;;;;9.07;1.35;;;5.80;99.90;;;;;;4809203;29;20049;-76
2021/03/14 04:08:24;;;;;;;5.47;1.15;;;5.80;99.90;;;;;;4823919;29;20057;-79
2021/03/14 04:10:51;;;;;;;2.65;0.77;;;5.90;99.90;;;;;;4823825;29;20038;-77
2021/03/14 04:13:18;;;;;;;5.10;0.88;;;5.80;99.90;;;;;;4823665;29;20053;-78
2021/03/14 04:15:43;;;;;;;4.80;0.77;;;5.80;99.90;;;;;;4823391;29;20041;-77
2021/03/14 04:18:11;;;;;;;6.75;1.02;;;5.80;99.90;;;;;;4825395;29;20030;-79
2021/03/14 04:20:40;;;;;;;8.75;1.30;;;5.80;99.90;;;;;;4808113;29;20038;-77
2021/03/14 04:23:18;;;;;;;3.28;1.00;;;5.90;99.90;;;;;;4823307;29;20046;-77
2021/03/14 04:25:44;;;;;;;6.28;0.88;;;5.90;99.90;;;;;;4823551;29;20410;-78
2021/03/14 04:28:11;;;;;;;3.30;0.85;;;5.90;99.90;;;;;;4823213;29;20359;-77
2021/03/14 04:30:37;;;;;;;2.00;0.80;;;5.90;99.90;;;;;;4823015;29;20090;-78
2021/03/14 04:33:04;;;;;;;4.15;0.82;;;5.80;99.90;;;;;;4824750;29;20362;-79
2021/03/14 04:35:30;;;;;;;2.42;0.90;;;5.90;99.90;;;;;;4807039;29;20454;-78
2021/03/14 04:37:57;;;;;;;5.57;1.10;;;5.80;99.90;;;;;;4822830;29;20481;-78
2021/03/14 04:40:24;;;;;;;5.18;0.80;;;5.80;99.90;;;;;;4822770;29;20045;-79
2021/03/14 04:42:52;;;;;;;4.43;0.90;;;5.80;99.90;;;;;;4822821;29;20042;-78
2021/03/14 04:45:18;;;;;;;2.70;1.02;;;5.80;99.90;;;;;;4822890;29;20057;-79
2021/03/14 04:47:45;;;;;;;3.90;0.77;;;5.80;99.90;;;;;;4824502;29;20445;-82
2021/03/14 04:50:14;;;;;;;7.53;1.23;;;5.90;99.90;;;;;;4822696;29;20057;-78
2021/03/14 04:52:44;;;;;;;1.80;0.70;;;5.90;99.90;;;;;;4806002;29;20130;-79
2021/03/14 04:55:12;;;;;;;5.88;0.95;;;5.90;99.90;;;;;;4822818;29;20039;-79
2021/03/14 04:57:39;;;;;;;5.43;0.80;;;6.10;99.90;;;;;;4822799;29;20099;-79
2021/03/14 05:00:08;;;;;;;2.67;0.93;;;6.10;99.90;;;;;;4824313;29;20069;-85
2021/03/14 05:02:36;;;;;;;8.05;1.42;;;6.00;99.90;;;;;;4791387;29;20071;-79
2021/03/14 05:05:03;;;;;;;;;;;6.00;99.90;;;;;;4806668;29;20062;-78
2021/03/14 05:07:30;;;;;;;6.28;1.60;;;6.00;99.90;;;;;;4822222;29;19913;-79
2021/03/14 05:09:57;;;;;;;9.15;1.98;;;6.10;99.90;;;;;;4822839;29;20039;-79
2021/03/14 05:12:24;;;;;;;6.10;1.67;;;6.20;99.90;;;;;;4822339;29;20027;-80
2021/03/14 05:14:50;;;;;;;5.63;1.33;;;6.20;99.90;;;;;;4823949;29;20026;-78
2021/03/14 05:17:18;;;;;;;2.40;0.98;;;6.30;99.90;;;;;;4822280;29;20054;-78
2021/03/14 05:19:44;;;;;;;6.57;1.73;;;6.40;99.90;;;;;;4822505;29;20077;-78
2021/03/14 05:22:10;;;;;;;6.90;1.67;;;6.20;99.90;;;;;;4822443;29;20038;-78
2021/03/14 05:24:38;;;;;;;12.30;1.80;;;6.20;99.90;;;;;;4822377;29;20081;-79
2021/03/14 05:27:04;;;;;;;;;;;6.30;99.90;;;;;;4824074;29;20038;-79
2021/03/14 05:29:31;;;;;;;8.63;1.58;;;6.30;99.90;;;;;;4822341;29;19996;-78
2021/03/14 05:31:57;;;;;;;11.63;1.92;;;6.40;99.90;;;;;;4822249;29;20102;-76
2021/03/14 05:34:24;;;;;;;5.47;1.75;;;6.50;99.90;;;;;;4821932;29;20034;-78
2021/03/14 05:36:50;;;;;;;6.82;1.63;;;6.50;99.90;;;;;;4822291;29;20038;-79
2021/03/14 05:39:15;;;;;;;12.30;2.42;;;6.40;99.90;;;;;;4821656;29;20053;-79
2021/03/14 05:41:42;;;;;;;17.40;2.42;;;6.40;99.90;;;;;;4823559;29;20558;-79
2021/03/14 05:44:08;;;;;;;9.57;2.50;;;6.50;99.90;;;;;;4805643;29;20155;-80
2021/03/14 05:46:35;;;;;;;11.40;1.80;;;6.40;99.90;;;;;;4805578;29;20465;-78
2021/03/14 05:49:04;;;;;;;7.47;1.90;;;6.50;99.90;;;;;;4821875;29;20038;-79
2021/03/14 05:51:33;;;;;;;12.30;1.88;;;6.60;99.90;;;;;;4806044;29;20130;-78
2021/03/14 05:54:00;;;;;;;4.95;1.45;;;6.70;99.90;;;;;;4807219;29;20026;-78
2021/03/14 05:56:28;;;;;;;7.07;1.60;;;6.60;99.90;;;;;;4821419;29;20163;-79
2021/03/14 05:58:55;;;;;;;10.07;2.15;;;6.50;99.90;;;;;;4821447;29;20129;-79
2021/03/14 06:01:25;;;;;;;10.60;2.08;;;6.60;99.90;;;;;;4821493;29;20047;-78
2021/03/14 06:03:54;;;;;;;10.05;2.15;;;6.50;99.90;;;;;;4805389;29;20042;-79
2021/03/14 06:06:20;;;;;;;6.70;1.80;;;6.60;99.90;;;;;;4821635;29;20041;-80
2021/03/14 06:08:45;;;;;;;8.70;2.00;;;6.50;99.90;;;;;;4807113;29;20457;-79
2021/03/14 06:11:11;;;;;;;16.73;4.18;;;6.40;99.90;;;;;;4821388;29;20050;-79
2021/03/14 06:13:37;;;;;;;13.25;3.80;;;6.40;99.90;;;;;;4821776;29;20046;-80
2021/03/14 06:16:03;;;;;;;13.25;4.75;;;6.50;99.90;;;;;;4804040;29;20046;-79
2021/03/14 06:18:29;;;;;;;8.50;3.15;;;6.70;99.90;;;;;;4802866;29;20415;-81
2021/03/14 06:20:55;;;;;;;10.77;2.70;;;6.70;99.90;;;;;;4803870;29;20027;-82
2021/03/14 06:23:22;;;;;;;10.50;2.60;;;6.70;99.90;;;;;;4803288;29;20072;-80
2021/03/14 06:25:52;;;;;;;10.15;2.28;;;6.70;99.90;;;;;;4802537;29;20043;-80
2021/03/14 06:28:34;;;;;;;8.13;3.63;;;6.70;99.90;;;;;;4802925;29;20039;-80
2021/03/14 06:31:16;;;;;;;11.25;3.38;;;6.60;99.90;;;;;;4803060;29;20039;-80
2021/03/14 06:33:43;;;;;;;12.73;3.40;;;6.60;99.90;;;;;;4802789;29;20035;-80
2021/03/14 06:36:26;;;;;;;16.17;3.25;;;6.70;99.90;;;;;;4804592;29;20109;-79
2021/03/14 06:38:52;;;;;;;18.50;4.35;;;6.80;99.90;;;;;;4803357;29;20421;-82
2021/03/14 06:41:21;;;;;;;16.02;3.10;;;6.70;99.90;;;;;;4801795;29;20079;-82
2021/03/14 06:43:49;;;;;;;13.43;2.90;;;6.90;99.90;;;;;;4802841;29;20122;-81
2021/03/14 06:46:31;;;;;;;13.65;3.22;;;7.10;99.90;;;;;;4802744;29;20042;-80
2021/03/14 06:49:09;;;;;;;14.18;3.35;;;7.20;99.90;;;;;;4802668;29;20103;-79
2021/03/14 06:51:43;;;;;;;13.02;3.33;;;7.30;99.90;;;;;;4802780;29;20035;-80
2021/03/14 06:54:17;;;;;;;21.25;4.10;;;7.20;99.90;;;;;;4788370;29;20027;-81
2021/03/14 06:57:08;;;;;;;18.85;3.65;;;7.20;99.90;;;;;;4803395;29;20130;-81
2021/03/14 06:59:36;;;;;;;18.15;3.60;;;7.20;99.90;;;;;;4802801;29;20043;-78
2021/03/14 07:02:12;;;;;;;15.27;3.65;;;7.10;99.90;;;;;;4802724;29;20087;-77
2021/03/14 07:04:48;;;;;;;16.40;3.53;;;7.10;99.90;;;;;;4802598;29;20060;-73
2021/03/14 07:07:26;;;;;;;17.02;3.70;;;7.10;99.90;;;;;;4802477;29;20082;-77
2021/03/14 07:09:53;;;;;;;14.43;3.40;;;7.20;99.90;;;;;;4786845;29;20374;-78
2021/03/14 07:12:28;;;;;;;13.82;2.85;;;7.20;99.90;;;;;;4802783;29;20031;-77
2021/03/14 07:14:54;;;;;;;15.65;3.65;;;7.30;99.90;;;;;;4804167;29;20019;-75
2021/03/14 07:17:34;;;;;;;17.08;3.08;;;7.20;99.90;;;;;;4784840;29;20031;-78
2021/03/14 07:20:19;;;;;;;14.68;4.40;;;7.30;99.90;;;;;;4821214;29;20054;-79
2021/03/14 07:23:09;;;;;;;22.15;3.40;;;7.20;99.90;;;;;;4806035;29;20102;-78
2021/03/14 07:25:45;;;;;;;16.17;3.22;;;7.30;99.90;;;;;;4822163;29;20247;-76
2021/03/14 07:28:14;;;;;;;14.25;3.05;;;7.30;99.90;;;;;;4822249;29;20091;-77
2021/03/14 07:30:39;;;;;;;14.20;3.20;;;7.20;99.90;;;;;;4822149;29;20042;-75
2021/03/14 07:33:11;;;;;;;12.25;3.45;;;7.20;99.90;;;;;;4807312;29;20031;-76
2021/03/14 07:35:38;;;;;;;12.82;3.17;;;7.20;99.90;;;;;;4822221;29;20111;-76
2021/03/14 07:38:03;;;;;;;13.95;3.92;;;7.40;99.90;;;;;;4805765;29;20425;-77
2021/03/14 07:40:30;;;;;;;18.23;3.50;;;7.40;99.60;;;;;;4822194;29;20121;-80
2021/03/14 07:42:56;;;;;;;12.48;2.97;;;7.30;99.80;;;;;;4805888;29;20047;-80
2021/03/14 07:45:22;;;;;;;10.95;3.28;;;7.40;99.70;;;;;;4822415;29;20133;-79
2021/03/14 07:47:48;;;;;;;16.40;3.42;;;7.40;99.40;;;;;;4823309;29;20113;-78
2021/03/14 07:50:23;;;;;;;22.88;4.00;;;7.60;99.50;;;;;;4806231;29;20130;-79
2021/03/14 07:52:52;;;;;;;22.05;4.10;;;7.60;99.50;;;;;;4822041;29;20036;-78
2021/03/14 07:55:20;;;;;;;12.98;3.42;;;7.70;99.40;;;;;;4821496;29;20053;-77
2021/03/14 07:57:47;;;;;;;11.80;4.00;;;7.60;99.20;;;;;;4821936;29;20076;-78
2021/03/14 08:00:33;;;;;;;13.93;4.65;;;7.50;99.30;;;;;;4822155;29;20364;-80
2021/03/14 08:03:09;;;;;;;12.77;3.35;;;7.50;99.50;;;;;;4823662;29;20453;-81
2021/03/14 08:05:41;;;;;;;12.93;3.70;;;7.60;99.30;;;;;;4822308;29;20070;-81
2021/03/14 08:08:08;;;;;;;17.25;3.60;;;7.70;99.30;;;;;;4805443;29;20075;-79
2021/03/14 08:10:39;;;;;;;11.63;3.00;;;7.60;99.20;;;;;;4821906;29;20131;-78
2021/03/14 08:13:07;;;;;;;14.93;3.72;;;7.70;99.20;;;;;;4821885;29;20042;-79
2021/03/14 08:15:33;;;;;;;;;;;7.70;99.10;;;;;;4822478;29;20041;-74
2021/03/14 08:18:01;;;;;;;12.95;3.30;;;7.70;99.10;;;;;;4822993;29;20392;-78
2021/03/14 08:20:47;;;;;;;11.77;3.25;;;7.70;98.90;;;;;;4821577;29;20502;-76
2021/03/14 08:23:16;;;;;;;20.20;3.40;;;7.80;98.80;;;;;;4821755;29;20042;-76
2021/03/14 08:25:43;;;;;;;12.38;3.03;;;7.80;98.80;;;;;;4821898;29;20066;-77
2021/03/14 08:28:30;;;;;;;10.00;2.97;;;7.90;98.60;;;;;;4823394;29;20509;-75
2021/03/14 08:31:06;;;;;;;13.70;3.20;;;8.10;98.60;;;;;;4808397;29;20039;-76
2021/03/14 08:33:45;;;;;;;14.30;2.70;;;7.80;98.40;;;;;;4824542;29;20045;-77
2021/03/14 08:36:13;;;;;;;9.75;2.42;;;8.00;98.70;;;;;;4808460;29;20038;-76
2021/03/14 08:38:48;;;;;;;8.85;2.65;;;8.10;98.30;;;;;;4809761;29;20458;-76
2021/03/14 08:41:18;;;;;;;10.57;3.45;;;8.30;98.10;;;;;;4824823;29;20034;-74
2021/03/14 08:43:45;;;;;;;16.23;3.03;;;8.40;98.30;;;;;;4824575;29;20043;-76
2021/03/14 08:46:14;;;;;;;19.88;3.28;;;8.40;98.00;;;;;;4824538;29;20386;-75
2021/03/14 08:48:39;;;;;;;13.27;2.53;;;8.50;98.00;;;;;;4808323;29;20466;-77
2021/03/14 08:51:07;;;;;;;13.68;3.00;;;8.50;97.80;;;;;;4826058;29;20023;-78
2021/03/14 08:53:34;;;;;;;11.88;2.65;;;8.50;97.70;;;;;;4808426;29;20034;-76
2021/03/14 08:56:00;;;;;;;8.93;2.38;;;8.50;97.60;;;;;;4824372;29;20062;-78
2021/03/14 08:58:26;;;;;;;7.20;2.70;;;8.50;97.50;;;;;;4823890;29;20491;-78
2021/03/14 09:01:05;;;;;;;7.47;2.40;;;8.50;97.60;;;;;;4823702;29;20133;-78
2021/03/14 09:03:31;;;;;;;10.50;2.30;;;8.40;97.60;;;;;;4823563;29;20489;-77
2021/03/14 09:06:27;;;;;;;11.02;2.20;;;8.40;97.70;;;;;;4825760;29;20030;-78
2021/03/14 09:09:02;;;;;;;9.50;2.67;;;8.40;97.60;;;;;;4823965;29;20095;-78
2021/03/14 09:11:44;;;;;;;12.02;2.30;;;8.40;97.60;;;;;;4823868;29;20100;-78
2021/03/14 09:14:32;;;;;;;7.03;2.05;;;8.10;97.60;;;;;;4823521;29;20042;-76
2021/03/14 09:17:07;;;;;;;10.68;2.33;;;8.20;97.70;;;;;;4823937;29;20042;-79
2021/03/14 09:19:35;;;;;;;11.57;2.42;;;8.30;97.50;;;;;;4807990;29;20070;-77
2021/03/14 09:22:36;;;;;;;9.63;2.10;;;8.30;97.60;;;;;;4807400;29;20429;-79
2021/03/14 09:25:13;;;;;;;13.38;2.47;;;8.30;97.60;;;;;;4820491;29;20106;-78
2021/03/14 09:27:44;;;;;;;8.10;2.17;;;8.30;97.50;;;;;;4823751;29;20038;-79
2021/03/14 09:30:17;;;;;;;8.85;2.33;;;8.40;97.60;;;;;;4824348;29;20022;-81
2021/03/14 09:32:48;;;;;;;14.70;2.78;;;8.40;97.50;;;;;;4809656;29;20126;-77
2021/03/14 09:35:24;;;;;;;7.75;2.67;;;8.50;97.70;;;;;;4824120;29;20404;-82
2021/03/14 09:38:10;;;;;;;12.85;2.80;;;8.50;97.20;;;;;;4823662;29;20038;-77
2021/03/14 09:40:47;;;;;;;10.82;2.88;;;8.40;97.10;;;;;;4823841;29;20038;-85
2021/03/14 09:43:18;;;;;;;16.33;2.97;;;8.60;97.10;;;;;;4809112;29;20049;-85
2021/03/14 09:45:56;;;;;;;8.82;2.47;;;8.70;96.90;;;;;;4824066;29;20038;-80
2021/03/14 09:48:25;;;;;;;9.07;2.20;;;8.70;96.50;;;;;;4823796;29;20056;-82
2021/03/14 09:50:56;;;;;;;7.28;1.95;;;9.00;96.00;;;;;;4826519;29;20054;-84
2021/03/14 09:53:25;;;;;;;13.85;2.50;;;9.20;96.00;;;;;;4823916;29;20042;-83
2021/03/14 09:56:01;;;;;;;10.70;2.65;;;9.50;95.60;;;;;;4808414;29;20038;-84
2021/03/14 09:58:28;;;;;;;9.88;2.00;;;9.60;95.80;;;;;;4824503;29;20042;-80
2021/03/14 10:00:56;;;;;;;10.00;2.58;;;10.10;94.90;;;;;;4824127;29;20049;-78
2021/03/14 10:03:26;;;;;;;6.20;1.65;;;10.90;93.50;;;;;;4807058;29;20034;-76
2021/03/14 10:05:53;;;;;;;9.52;2.58;;;11.30;93.10;;;;;;4808500;29;20054;-73
2021/03/14 10:08:21;;;;;;;6.68;2.03;;;11.30;92.40;;;;;;4821900;29;20066;-78
2021/03/14 10:10:50;;;;;;;4.88;1.80;;;11.60;92.10;;;;;;4822807;29;20122;-76
2021/03/14 10:13:18;;;;;;;4.97;1.48;;;11.70;91.50;;;;;;4806807;29;20030;-77
2021/03/14 10:15:47;;;;;;;10.80;1.58;;;11.60;90.90;;;;;;4822515;29;20034;-76
2021/03/14 10:18:17;;;;;;;5.53;1.63;;;11.60;90.80;;;;;;4806595;29;20533;-79
2021/03/14 10:20:43;;;;;;;5.25;1.50;;;11.60;90.40;;;;;;4824926;29;20323;-77
2021/03/14 10:23:09;;;;;;;7.05;1.30;;;12.00;90.10;;;;;;4822870;29;20042;-76
2021/03/14 10:25:40;;;;;;;5.70;1.77;;;11.40;89.10;;;;;;4821540;29;20127;-76
2021/03/14 10:28:12;;;;;;;6.88;1.52;;;11.40;90.20;;;;;;4804881;29;20410;-76
2021/03/14 10:30:42;;;;;;;7.88;1.38;;;11.40;89.10;;;;;;4804651;29;20058;-75
2021/03/14 10:33:30;;;;;;;4.07;1.67;;;11.70;89.30;;;;;;4806360;29;20033;-75
2021/03/14 10:36:02;;;;;;;5.18;1.30;;;11.90;88.00;;;;;;4805281;29;20485;-77
2021/03/14 10:38:27;;;;;;;3.25;1.20;;;12.00;88.20;;;;;;4805172;29;20050;-75
2021/03/14 10:41:11;;;;;;;4.40;1.48;;;12.30;86.50;;;;;;4820838;29;20122;-77
2021/03/14 10:43:48;;;;;;;5.45;1.40;;;12.70;85.70;;;;;;4820942;29;20580;-77
2021/03/14 10:46:34;;;;;;;7.03;1.45;;;12.50;84.80;;;;;;4804910;29;20046;-76
2021/03/14 10:49:12;;;;;;;4.97;1.60;;;13.00;85.00;;;;;;4805075;29;20468;-79
2021/03/14 10:51:39;;;;;;;8.07;1.85;;;12.70;83.60;;;;;;4819524;29;20037;-77
2021/03/14 10:54:10;;;;;;;6.05;1.70;;;13.10;84.50;;;;;;4822574;29;20023;-75
2021/03/14 10:56:39;;;;;;;4.45;1.48;;;13.10;83.00;;;;;;4821356;29;20057;-70
2021/03/14 10:59:05;;;;;;;;;;;13.70;83.90;;;;;;4821502;29;20045;-76
2021/03/14 11:01:36;;;;;;;5.20;1.45;;;14.40;80.00;;;;;;4821270;29;19924;-80
2021/03/14 11:04:06;;;;;;;4.38;1.33;;;14.70;79.30;;;;;;4804419;29;20088;-79
2021/03/14 11:06:32;;;;;;;9.52;1.77;;;15.30;77.90;;;;;;4820630;29;20045;-79
2021/03/14 11:09:06;;;;;;;4.53;1.10;;;14.80;74.90;;;;;;4822445;29;20026;-78
2021/03/14 11:11:43;;;;;;;7.30;2.13;;;14.60;74.20;;;;;;4801262;29;20047;-78
2021/03/14 11:14:38;;;;;;;5.97;1.63;;;15.00;73.60;;;;;;4802368;29;20046;-78
2021/03/14 11:17:06;;;;;;;7.10;1.50;;;15.50;75.90;;;;;;4803017;29;20047;-80
2021/03/14 11:19:34;;;;;;;4.70;1.52;;;16.30;71.10;;;;;;4802549;29;20470;-77
2021/03/14 11:22:00;;;;;;;4.40;1.30;;;16.90;71.00;;;;;;4802483;29;20399;-77
2021/03/14 11:24:25;;;;;;;7.10;1.48;;;17.00;67.90;;;;;;4802027;29;20064;-81
2021/03/14 11:26:51;;;;;;;3.17;1.20;;;17.20;68.20;;;;;;4803219;29;20413;-77
2021/03/14 11:29:17;;;;;;;5.40;1.40;;;17.00;66.90;;;;;;4802487;29;20039;-77
2021/03/14 11:31:43;;;;;;;4.22;1.30;;;15.60;63.50;;;;;;4786581;29;20043;-75
2021/03/14 11:34:08;;;;;;;9.60;1.55;;;15.30;66.90;;;;;;4802246;29;20051;-75
2021/03/14 11:36:34;;;;;;;2.45;1.15;;;15.40;65.50;;;;;;4802235;29;20035;-77
2021/03/14 11:38:59;;;;;;;3.97;1.30;;;15.10;67.50;;;;;;4804036;29;20042;-78
2021/03/14 11:41:26;;;;;;;7.68;1.25;;;15.20;66.80;;;;;;4801246;29;20154;-77
2021/03/14 11:43:52;;;;;;;5.82;1.58;;;14.30;67.00;;;;;;4786570;29;20466;-77
2021/03/14 11:46:17;;;;;;;4.30;1.20;;;14.20;69.60;;;;;;4802300;29;20039;-77
2021/03/14 11:48:43;;;;;;;3.63;1.40;;;13.60;71.90;;;;;;4801243;29;20035;-77
2021/03/14 11:51:09;;;;;;;4.95;2.10;;;13.20;72.60;;;;;;4802970;29;20023;-77
2021/03/14 11:53:34;;;;;;;3.72;1.50;;;13.40;74.10;;;;;;4802524;29;20049;-77
2021/03/14 11:56:00;;;;;;;8.57;1.70;;;12.80;74.50;;;;;;4801671;29;20039;-82
2021/03/14 11:58:26;;;;;;;5.53;1.70;;;12.70;76.90;;;;;;4802256;29;20046;-85
2021/03/14 12:00:51;;;;;;;4.63;1.27;;;12.50;77.30;;;;;;4802032;29;20053;-77
2021/03/14 12:03:17;;;;;;;4.32;1.60;;;12.10;78.80;;;;;;4803945;29;20026;-80
2021/03/14 12:05:43;;;;;;;6.60;1.65;;;12.20;79.20;;;;;;4791104;29;20107;-77
2021/03/14 12:08:09;;;;;;;4.50;1.70;;;11.80;80.00;;;;;;4819151;29;20051;-79
2021/03/14 12:10:35;;;;;;;5.20;1.75;;;11.80;80.90;;;;;;4825142;29;20053;-79
2021/03/14 12:13:01;;;;;;;5.05;1.27;;;11.60;82.10;;;;;;4809052;29;20034;-81
2021/03/14 12:15:26;;;;;;;3.58;1.13;;;11.90;82.60;;;;;;4824849;29;20549;-80
2021/03/14 12:17:52;;;;;;;6.40;1.75;;;11.90;82.30;;;;;;4826970;29;20038;-78
2021/03/14 12:20:17;;;;;;;11.23;1.88;;;12.10;83.00;;;;;;4824445;29;20473;-79
2021/03/14 12:22:43;;;;;;;6.88;1.58;;;12.10;82.40;;;;;;4823911;29;20133;-78
2021/03/14 12:25:09;;;;;;;7.20;1.90;;;11.90;82.20;;;;;;4824295;29;20038;-77
2021/03/14 12:27:34;;;;;;;10.50;1.90;;;12.00;85.60;;;;;;4807169;29;20099;-77
2021/03/14 12:30:00;;;;;;;7.88;1.80;;;12.10;84.10;;;;;;4824961;29;20041;-76
2021/03/14 12:32:26;;;;;;;3.50;1.08;;;12.20;82.50;;;;;;4823091;29;20047;-77
2021/03/14 12:34:51;;;;;;;3.47;1.23;;;12.40;81.90;;;;;;4822826;29;20042;-77
2021/03/14 12:37:17;;;;;;;4.20;1.23;;;12.50;80.60;;;;;;4823038;29;20046;-77
2021/03/14 12:39:42;;;;;;;6.20;1.27;;;12.40;80.40;;;;;;4822512;29;20477;-78
2021/03/14 12:42:08;;;;;;;3.35;1.15;;;12.30;80.90;;;;;;4824762;29;20039;-77
2021/03/14 12:44:34;;;;;;;4.50;1.10;;;12.50;80.80;;;;;;4806492;29;20579;-77
2021/03/14 12:46:59;;;;;;;5.22;1.20;;;12.50;80.60;;;;;;4822832;29;20098;-77
2021/03/14 12:49:25;;;;;;;4.28;0.90;;;12.50;80.00;;;;;;4822859;29;20046;-77
2021/03/14 12:51:51;;;;;;;6.25;1.17;;;12.50;78.30;;;;;;4822940;29;20094;-76
2021/03/14 12:54:16;;;;;;;7.18;1.60;;;12.40;77.60;;;;;;4822854;29;20030;-76
2021/03/14 12:56:42;;;;;;;6.63;2.17;;;12.20;78.70;;;;;;4824367;29;20072;-75
2021/03/14 12:59:08;;;;;;;2.55;1.05;;;12.10;78.20;;;;;;4822712;29;20406;-77
2021/03/14 13:01:34;;;;;;;4.65;1.20;;;11.70;77.80;;;;;;4823102;29;20041;-80